Time;durP1;ratioP1;P1;durP2;ratioP2;P2;SDS_P1;SDS_P2;PMS_P1;PMS_P2;Temp;Humidity;BMP_temperature;BMP_pressure;BME280_temperature;BME280_humidity;BME280_pressure;Samples;Min_cycle;Max_cycle;Signal;HPM_P1;HPM_P2
2022/04/10 00:01:08;;;;;;;51.00;46.00;;;;;;;0.95;77.25;97316.03;107873;1290;22969;-87
2022/04/10 00:03:35;;;;;;;48.10;43.40;;;;;;;0.97;77.06;97315.26;107881;1290;22338;-85
2022/04/10 00:06:03;;;;;;;47.90;43.50;;;;;;;0.98;77.04;97315.11;107892;1291;22289;-87
2022/04/10 00:08:31;;;;;;;49.10;44.50;;;;;;;1.00;77.01;97324.73;107922;1290;22272;-85
2022/04/10 00:10:59;;;;;;;50.50;45.70;;;;;;;1.01;76.93;97328.35;107908;1291;23023;-86
2022/04/10 00:13:27;;;;;;;51.30;46.40;;;;;;;1.01;77.17;97331.86;107898;1290;22452;-91
2022/04/10 00:15:55;;;;;;;54.20;49.10;;;;;;;1.02;77.16;97335.42;108044;1291;22315;-86
2022/04/10 00:18:23;;;;;;;51.60;46.50;;;;;;;1.02;77.22;97342.10;108082;1290;22333;-90
2022/04/10 00:20:51;;;;;;;46.30;41.80;;;;;;;1.03;77.19;97341.89;107911;1291;22285;-90
2022/04/10 00:23:20;;;;;;;45.90;41.50;;;;;;;1.05;77.20;97343.98;107906;1290;22361;-88
2022/04/10 00:25:47;;;;;;;50.80;46.00;;;;;;;1.08;77.07;97345.71;107883;1290;22337;-89
2022/04/10 00:28:16;;;;;;;50.20;45.40;;;;;;;1.07;77.07;97354.08;107925;1290;22798;-89
2022/04/10 00:30:44;;;;;;;53.80;48.40;;;;;;;1.06;77.23;97355.50;107770;1290;209283;-91
2022/04/10 00:33:12;;;;;;;56.10;50.80;;;;;;;1.02;77.30;97360.57;107586;1291;22367;-90
2022/04/10 00:35:40;;;;;;;61.50;55.70;;;;;;;0.99;77.24;97363.98;107503;1290;22265;-89
2022/04/10 00:38:08;;;;;;;51.60;46.80;;;;;;;0.96;77.17;97364.23;107888;1290;22599;-90
2022/04/10 00:40:36;;;;;;;48.50;43.60;;;;;;;0.92;77.21;97363.45;107957;1291;22285;-88
2022/04/10 00:43:04;;;;;;;48.00;43.20;;;;;;;0.90;77.02;97366.66;107960;1290;22328;-89
2022/04/10 00:45:32;;;;;;;42.80;38.60;;;;;;;0.91;77.24;97373.25;107650;1291;22505;-90
2022/04/10 00:47:59;;;;;;;47.10;42.40;;;;;;;0.87;77.01;97375.91;107982;1290;22361;-89
2022/04/10 00:50:27;;;;;;;45.90;41.60;;;;;;;0.79;76.79;97381.23;107903;1291;22448;-89
2022/04/10 00:52:57;;;;;;;51.20;46.10;;;;;;;0.70;76.97;97382.98;107568;1291;22556;-88
2022/04/10 00:55:26;;;;;;;48.10;43.50;;;;;;;0.60;77.08;97387.27;107890;1290;22475;-88
2022/04/10 00:57:54;;;;;;;45.90;41.40;;;;;;;0.54;77.15;97385.39;107920;1291;22268;-87
2022/04/10 01:00:22;;;;;;;44.50;40.10;;;;;;;0.53;77.52;97386.64;107911;1291;22432;-86
2022/04/10 01:02:50;;;;;;;48.70;44.10;;;;;;;0.52;77.49;97380.92;108069;1290;22266;-89
2022/04/10 01:05:18;;;;;;;51.50;46.30;;;;;;;0.54;77.48;97380.02;107565;1291;22263;-89
2022/04/10 01:07:46;;;;;;;51.20;46.40;;;;;;;0.51;77.50;97383.77;107921;1291;22469;-89
2022/04/10 01:10:14;;;;;;;54.80;49.40;;;;;;;0.43;77.00;97386.20;107928;1290;22483;-91
2022/04/10 01:12:42;;;;;;;54.50;49.30;;;;;;;0.22;76.85;97382.60;107886;1291;22266;-87
2022/04/10 01:15:16;;;;;;;54.40;49.10;;;;;;;0.05;76.70;97383.36;107446;1291;22306;-82
2022/04/10 01:17:48;;;;;;;54.20;49.20;;;;;;;-0.08;76.91;97389.44;107576;1291;22189;-87
2022/04/10 01:20:16;;;;;;;49.40;44.70;;;;;;;-0.13;77.22;97390.67;107883;1291;22421;-87
2022/04/10 01:22:48;;;;;;;49.80;45.00;;;;;;;-0.10;77.69;97391.02;107686;1291;22412;-81
2022/04/10 01:25:16;;;;;;;53.90;48.70;;;;;;;-0.12;77.76;97389.05;107585;1291;22295;-86
2022/04/10 01:27:44;;;;;;;50.60;45.90;;;;;;;-0.16;77.71;97391.20;107656;1291;22984;-83
2022/04/10 01:30:15;;;;;;;46.90;42.10;;;;;;;-0.20;77.94;97391.05;107640;1291;22515;-84
2022/04/10 01:32:45;;;;;;;45.60;40.90;;;;;;;-0.21;78.05;97386.05;107885;1291;22383;-81
2022/04/10 01:35:13;;;;;;;42.50;38.20;;;;;;;-0.20;78.09;97389.42;107885;1290;22269;-81
2022/04/10 01:37:42;;;;;;;45.30;40.60;;;;;;;-0.20;77.93;97393.48;107885;1291;22292;-81
2022/04/10 01:40:13;;;;;;;57.80;52.10;;;;;;;-0.21;78.09;97397.48;107652;1290;22271;-84
2022/04/10 01:42:41;;;;;;;55.20;49.80;;;;;;;-0.25;78.16;97399.02;107634;1291;22398;-88
2022/04/10 01:45:10;;;;;;;54.30;49.20;;;;;;;-0.29;78.62;97403.93;107652;1291;22377;-86
2022/04/10 01:47:38;;;;;;;50.80;46.00;;;;;;;-0.32;78.60;97409.39;107863;1291;22260;-84
2022/04/10 01:50:08;;;;;;;45.50;41.20;;;;;;;-0.35;78.79;97408.67;107637;1290;22485;-82
2022/04/10 01:52:35;;;;;;;46.40;41.70;;;;;;;-0.34;79.11;97404.55;107870;1291;22348;-79
2022/04/10 01:55:04;;;;;;;44.40;40.10;;;;;;;-0.33;79.42;97410.66;107605;1289;22411;-82
2022/04/10 01:57:32;;;;;;;48.30;43.50;;;;;;;-0.32;79.86;97410.52;107911;1291;22230;-81
2022/04/10 02:00:00;;;;;;;45.40;41.10;;;;;;;-0.32;79.78;97413.17;107642;1291;22360;-84
2022/04/10 02:02:28;;;;;;;46.00;41.40;;;;;;;-0.30;80.02;97414.34;107638;1293;22296;-82
2022/04/10 02:04:56;;;;;;;45.20;41.00;;;;;;;-0.27;79.97;97415.20;107637;1291;23131;-89
2022/04/10 02:07:24;;;;;;;44.50;40.20;;;;;;;-0.24;80.13;97414.39;107573;1291;22376;-83
2022/04/10 02:09:52;;;;;;;43.60;39.50;;;;;;;-0.19;80.21;97419.33;107617;1291;22509;-82
2022/04/10 02:12:20;;;;;;;46.50;41.90;;;;;;;-0.17;80.06;97420.08;107642;1291;22469;-82
2022/04/10 02:14:48;;;;;;;47.20;42.40;;;;;;;-0.16;80.23;97422.88;107886;1290;22623;-82
2022/04/10 02:17:17;;;;;;;45.80;41.20;;;;;;;-0.15;80.22;97424.80;107630;1291;23154;-83
2022/04/10 02:19:44;;;;;;;44.90;40.40;;;;;;;-0.12;80.32;97428.94;107874;1290;22407;-83
2022/04/10 02:22:13;;;;;;;43.70;39.40;;;;;;;-0.07;80.06;97430.12;107890;1290;23023;-82
2022/04/10 02:24:40;;;;;;;47.70;43.20;;;;;;;0.02;80.22;97435.40;107604;1291;23170;-82
2022/04/10 02:27:08;;;;;;;45.00;40.60;;;;;;;0.10;80.43;97442.18;107597;1291;22466;-83
2022/04/10 02:29:37;;;;;;;45.70;41.30;;;;;;;0.10;80.07;97440.50;107597;1291;23003;-83
2022/04/10 02:32:05;;;;;;;43.70;39.30;;;;;;;0.07;80.47;97439.88;107867;1290;22467;-83
2022/04/10 02:34:33;;;;;;;43.00;38.60;;;;;;;0.06;79.93;97442.56;107880;1291;22584;-83
2022/04/10 02:37:01;;;;;;;44.30;39.90;;;;;;;0.06;80.39;97442.89;107592;1291;22485;-80
2022/04/10 02:39:30;;;;;;;45.30;41.00;;;;;;;0.02;80.11;97443.44;107630;1291;22381;-81
2022/04/10 02:41:58;;;;;;;46.40;42.10;;;;;;;-0.03;80.34;97444.06;107542;1291;22405;-83
2022/04/10 02:44:26;;;;;;;44.40;40.10;;;;;;;-0.09;80.05;97444.46;107881;1291;22908;-84
2022/04/10 02:46:54;;;;;;;42.00;37.90;;;;;;;-0.13;80.13;97443.96;107562;1291;22375;-84
2022/04/10 02:49:22;;;;;;;43.50;39.10;;;;;;;-0.13;80.23;97448.03;107879;1291;23224;-85
2022/04/10 02:51:50;;;;;;;46.00;41.30;;;;;;;-0.12;80.34;97445.88;107865;1290;22299;-86
2022/04/10 02:54:18;;;;;;;47.50;43.00;;;;;;;-0.14;80.38;97444.25;107554;1291;22511;-85
2022/04/10 02:56:45;;;;;;;50.00;45.50;;;;;;;-0.20;80.55;97447.46;107864;1291;23035;-84
2022/04/10 02:59:13;;;;;;;48.70;43.60;;;;;;;-0.26;80.54;97445.36;107635;1291;22922;-84
2022/04/10 03:01:41;;;;;;;46.80;42.30;;;;;;;-0.30;80.84;97441.26;107632;1291;22950;-85
2022/04/10 03:04:09;;;;;;;44.40;40.20;;;;;;;-0.31;80.83;97445.36;107517;1291;22254;-83
2022/04/10 03:06:38;;;;;;;44.00;39.90;;;;;;;-0.31;80.78;97445.73;107654;1291;22260;-83
2022/04/10 03:09:07;;;;;;;45.90;41.60;;;;;;;-0.31;80.95;97446.53;107651;1291;22268;-83
2022/04/10 03:11:37;;;;;;;47.40;43.00;;;;;;;-0.34;81.50;97451.08;107889;1291;22354;-81
2022/04/10 03:14:05;;;;;;;46.60;42.20;;;;;;;-0.35;81.10;97449.98;108049;1291;22190;-84
2022/04/10 03:16:33;;;;;;;43.90;39.90;;;;;;;-0.33;80.89;97446.87;108241;1291;22444;-84
2022/04/10 03:19:02;;;;;;;43.00;39.00;;;;;;;-0.29;81.00;97444.50;107915;1291;22558;-84
2022/04/10 03:21:30;;;;;;;42.80;39.00;;;;;;;-0.25;80.95;97453.30;107802;1291;22395;-85
2022/04/10 03:23:58;;;;;;;44.80;41.00;;;;;;;-0.20;80.95;97454.27;107628;1291;23194;-84
2022/04/10 03:26:26;;;;;;;46.50;42.20;;;;;;;-0.18;81.02;97462.69;107825;1291;22319;-85
2022/04/10 03:28:54;;;;;;;46.00;41.70;;;;;;;-0.17;81.03;97465.93;107643;1294;22200;-85
2022/04/10 03:31:23;;;;;;;49.70;44.90;;;;;;;-0.15;81.34;97470.61;107482;1291;22382;-83
2022/04/10 03:33:53;;;;;;;43.70;39.40;;;;;;;-0.13;81.24;97472.51;107644;1291;22330;-85
2022/04/10 03:36:21;;;;;;;44.10;40.00;;;;;;;-0.11;81.05;97481.08;107658;1291;23051;-82
2022/04/10 03:38:49;;;;;;;44.70;40.50;;;;;;;-0.10;81.02;97479.17;107897;1291;22467;-82
2022/04/10 03:41:17;;;;;;;44.40;40.20;;;;;;;-0.12;81.06;97487.20;107645;1291;22420;-92
2022/04/10 03:43:45;;;;;;;48.00;43.40;;;;;;;-0.17;81.06;97486.54;107665;1291;22251;-80
2022/04/10 03:46:13;;;;;;;49.20;44.30;;;;;;;-0.24;80.90;97487.73;107652;1291;22415;-80
2022/04/10 03:48:41;;;;;;;49.40;44.40;;;;;;;-0.31;80.86;97491.59;107639;1291;22394;-79
2022/04/10 03:51:09;;;;;;;48.70;43.90;;;;;;;-0.37;81.12;97493.11;107620;1291;22307;-82
2022/04/10 03:53:38;;;;;;;49.60;44.40;;;;;;;-0.41;81.04;97494.11;107880;1291;22397;-81
2022/04/10 03:56:07;;;;;;;53.80;48.30;;;;;;;-0.43;81.24;97498.52;107626;1291;22283;-82
2022/04/10 03:58:35;;;;;;;63.30;56.30;;;;;;;-0.44;81.23;97506.02;107644;1291;22267;-83
2022/04/10 04:01:03;;;;;;;68.40;58.20;;;;;;;-0.49;81.65;97510.19;107885;1291;23014;-83
2022/04/10 04:03:31;;;;;;;62.00;55.60;;;;;;;-0.48;81.57;97513.68;107893;1291;22467;-82
2022/04/10 04:05:59;;;;;;;55.80;50.30;;;;;;;-0.43;81.59;97518.48;107638;1291;22332;-83
2022/04/10 04:08:27;;;;;;;54.80;49.60;;;;;;;-0.34;81.75;97517.20;107633;1291;22513;-82
2022/04/10 04:10:55;;;;;;;50.90;46.00;;;;;;;-0.32;81.51;97524.77;107621;1291;22285;-83
2022/04/10 04:13:25;;;;;;;55.40;50.00;;;;;;;-0.32;81.61;97523.83;107879;1291;22362;-83
2022/04/10 04:15:53;;;;;;;57.80;52.00;;;;;;;-0.29;81.96;97528.05;107675;1291;22970;-83
2022/04/10 04:18:22;;;;;;;57.50;52.30;;;;;;;-0.27;81.82;97532.80;107656;1292;22196;-83
2022/04/10 04:20:50;;;;;;;52.80;47.50;;;;;;;-0.29;81.52;97531.76;107642;1291;22342;-83
2022/04/10 04:23:19;;;;;;;53.90;47.70;;;;;;;-0.27;81.16;97539.11;107653;1291;23040;-84
2022/04/10 04:25:49;;;;;;;59.50;53.90;;;;;;;-0.27;81.05;97543.77;107658;1291;23173;-84
2022/04/10 04:28:18;;;;;;;63.30;57.20;;;;;;;-0.29;81.21;97550.77;107657;1291;22296;-83
2022/04/10 04:30:45;;;;;;;66.00;60.30;;;;;;;-0.31;81.52;97553.17;107640;1291;22305;-83
2022/04/10 04:33:16;;;;;;;65.70;59.90;;;;;;;-0.32;81.40;97559.08;107651;1291;22338;-84
2022/04/10 04:35:44;;;;;;;60.40;54.80;;;;;;;-0.36;81.45;97563.98;107642;1291;22279;-84
2022/04/10 04:38:12;;;;;;;58.80;53.40;;;;;;;-0.34;81.52;97570.16;107642;1291;23230;-84
2022/04/10 04:40:40;;;;;;;58.10;52.70;;;;;;;-0.30;81.47;97567.38;107647;1291;22359;-83
2022/04/10 04:43:09;;;;;;;59.50;54.30;;;;;;;-0.25;81.49;97571.50;107649;1292;22264;-83
2022/04/10 04:45:38;;;;;;;59.80;54.60;;;;;;;-0.23;81.43;97577.36;107611;1291;22238;-84
2022/04/10 04:48:16;;;;;;;62.00;56.60;;;;;;;-0.21;81.53;97584.11;107857;1291;22311;-83
2022/04/10 04:50:44;;;;;;;59.20;54.10;;;;;;;-0.16;81.99;97585.31;107630;1291;22368;-85
2022/04/10 04:53:17;;;;;;;54.70;50.00;;;;;;;-0.11;81.76;97589.17;107579;1291;23094;-84
2022/04/10 04:55:45;;;;;;;53.10;48.20;;;;;;;-0.08;81.70;97596.43;107642;1291;22705;-82
2022/04/10 04:58:13;;;;;;;51.90;47.30;;;;;;;0.00;81.82;97603.25;107643;1293;23180;-82
2022/04/10 05:00:41;;;;;;;56.10;51.30;;;;;;;0.09;81.96;97604.98;107823;1291;22532;-85
2022/04/10 05:03:09;;;;;;;55.60;51.00;;;;;;;0.18;81.86;97609.92;107661;1292;22258;-82
2022/04/10 05:05:37;;;;;;;59.30;54.40;;;;;;;0.24;82.10;97614.16;107510;1293;22366;-82
2022/04/10 05:08:12;;;;;;;60.20;55.00;;;;;;;0.31;81.95;97620.16;107643;1293;23304;-81
2022/04/10 05:10:40;;;;;;;64.70;59.30;;;;;;;0.37;82.17;97621.05;107545;1291;22374;-83
2022/04/10 05:13:08;;;;;;;62.10;56.50;;;;;;;0.43;81.97;97625.30;107649;1291;22299;-83
2022/04/10 05:15:37;;;;;;;56.60;51.70;;;;;;;0.52;82.07;97626.91;107844;1291;22438;-83
2022/04/10 05:18:06;;;;;;;54.00;49.40;;;;;;;0.61;81.97;97625.63;107827;1293;22382;-82
2022/04/10 05:20:35;;;;;;;55.10;50.60;;;;;;;0.65;81.84;97631.77;107560;1293;22332;-84
2022/04/10 05:23:09;;;;;;;58.00;53.10;;;;;;;0.65;81.74;97628.30;107660;1292;23117;-83
2022/04/10 05:25:39;;;;;;;54.20;49.70;;;;;;;0.67;81.83;97625.15;107666;1293;22367;-82
2022/04/10 05:28:08;;;;;;;56.70;52.00;;;;;;;0.71;82.04;97626.21;107520;1293;22389;-83
2022/04/10 05:30:36;;;;;;;49.70;45.40;;;;;;;0.74;81.75;97632.24;107567;1293;22393;-83
2022/04/10 05:33:05;;;;;;;48.70;44.60;;;;;;;0.80;81.96;97632.71;107633;1292;22539;-84
2022/04/10 05:35:33;;;;;;;50.20;46.00;;;;;;;0.84;81.70;97634.27;107650;1291;22286;-85
2022/04/10 05:38:01;;;;;;;52.50;48.00;;;;;;;0.86;81.69;97634.40;107817;1291;22304;-86
2022/04/10 05:40:30;;;;;;;58.70;53.50;;;;;;;0.87;81.90;97636.42;107560;1291;22344;-86
2022/04/10 05:42:58;;;;;;;65.40;59.50;;;;;;;0.92;82.20;97637.88;107856;1291;22816;-87
2022/04/10 05:45:26;;;;;;;64.20;58.20;;;;;;;0.97;82.11;97637.38;107567;1292;22286;-87
2022/04/10 05:47:55;;;;;;;56.30;50.80;;;;;;;1.05;82.12;97641.05;107520;1293;22400;-88
2022/04/10 05:50:25;;;;;;;57.50;52.00;;;;;;;1.13;82.42;97640.36;107654;1291;22372;-88
2022/04/10 05:52:53;;;;;;;54.80;49.60;;;;;;;1.21;82.24;97644.44;107726;1292;22288;-85
2022/04/10 05:55:24;;;;;;;57.70;52.50;;;;;;;1.28;82.38;97645.88;107726;1291;22278;-87
2022/04/10 05:57:52;;;;;;;59.60;54.30;;;;;;;1.34;82.30;97649.77;107881;1291;22605;-85
2022/04/10 06:00:24;;;;;;;57.70;53.00;;;;;;;1.38;82.33;97655.46;107722;1291;22363;-85
2022/04/10 06:03:03;;;;;;;55.00;50.30;;;;;;;1.40;82.18;97657.61;107629;1291;22278;-88
2022/04/10 06:05:32;;;;;;;51.50;47.10;;;;;;;1.41;82.34;97659.69;107584;1291;22293;-86
2022/04/10 06:08:06;;;;;;;;;;;;;;;1.40;82.05;97661.06;107575;1291;22399;-86
2022/04/10 06:10:35;;;;;;;59.00;53.80;;;;;;;1.38;82.10;97662.95;107557;1291;23059;-87
2022/04/10 06:13:07;;;;;;;60.70;55.60;;;;;;;1.35;82.10;97661.02;107678;1291;22310;-86
2022/04/10 06:15:49;;;;;;;64.90;59.70;;;;;;;1.34;82.28;97664.55;107670;1291;22294;-87
2022/04/10 06:18:17;;;;;;;64.60;59.30;;;;;;;1.35;82.46;97664.73;107601;1291;22342;-86
2022/04/10 06:20:46;;;;;;;57.90;53.20;;;;;;;1.38;82.57;97667.52;107692;1291;22244;-86
2022/04/10 06:23:15;;;;;;;57.30;52.40;;;;;;;1.40;82.29;97661.38;107691;1291;23055;-86
2022/04/10 06:25:44;;;;;;;57.00;52.30;;;;;;;1.42;82.10;97663.33;107656;1291;22309;-85
2022/04/10 06:28:12;;;;;;;59.10;53.90;;;;;;;1.45;82.05;97662.46;107561;1291;22589;-84
2022/04/10 06:30:45;;;;;;;63.60;58.30;;;;;;;1.47;82.26;97662.91;107561;1291;22374;-86
2022/04/10 06:33:14;;;;;;;64.90;59.50;;;;;;;1.48;82.34;97664.36;107631;1291;22485;-87
2022/04/10 06:35:44;;;;;;;68.80;63.20;;;;;;;1.49;82.37;97665.16;107660;1291;22417;-86
2022/04/10 06:38:13;;;;;;;64.40;58.70;;;;;;;1.50;82.50;97666.02;107660;1291;22556;-85
2022/04/10 06:40:43;;;;;;;57.00;51.80;;;;;;;1.54;82.59;97667.30;107641;1291;22277;-84
2022/04/10 06:43:11;;;;;;;54.20;49.30;;;;;;;1.59;82.53;97669.77;107486;1291;22400;-86
2022/04/10 06:46:08;;;;;;;53.00;48.60;;;;;;;1.66;82.32;97679.14;107695;1291;22452;-85
2022/04/10 06:48:41;;;;;;;;;;;;;;;1.67;82.39;97677.04;107474;1294;23086;-86
2022/04/10 06:51:09;;;;;;;57.50;52.70;;;;;;;1.66;82.62;97675.54;107729;1291;22405;-86
2022/04/10 06:53:38;;;;;;;60.50;55.50;;;;;;;1.67;82.46;97671.23;107693;1291;22453;-84
2022/04/10 06:56:06;;;;;;;43.70;40.00;;;;;;;1.70;82.45;97674.30;107670;1291;22418;-85
2022/04/10 06:58:37;;;;;;;46.50;42.20;;;;;;;1.77;82.57;97675.81;107685;1291;23167;-83
2022/04/10 07:01:05;;;;;;;40.70;36.90;;;;;;;1.82;82.46;97678.28;107717;1291;23038;-85
2022/04/10 07:03:34;;;;;;;41.40;38.00;;;;;;;1.90;82.49;97679.64;107570;1291;22276;-83
2022/04/10 07:06:03;;;;;;;40.90;37.20;;;;;;;1.95;82.58;97683.58;107582;1291;23088;-87
2022/04/10 07:08:37;;;;;;;50.50;46.30;;;;;;;1.98;82.57;97683.48;107645;1291;22415;-87
2022/04/10 07:11:06;;;;;;;47.40;43.30;;;;;;;2.03;82.76;97688.73;107677;1291;22391;-84
2022/04/10 07:13:34;;;;;;;42.40;38.40;;;;;;;2.03;82.57;97689.85;107653;1291;23319;-86
2022/04/10 07:16:03;;;;;;;53.00;48.20;;;;;;;2.02;82.38;97694.23;107652;1291;22502;-85
2022/04/10 07:18:31;;;;;;;39.90;36.20;;;;;;;2.06;82.41;97695.88;107598;1291;22244;-86
2022/04/10 07:21:03;;;;;;;41.00;37.20;;;;;;;2.15;82.42;97695.77;107695;1291;22340;-86
2022/04/10 07:23:41;;;;;;;47.20;42.90;;;;;;;2.19;82.47;97697.95;107564;1291;22315;-85
2022/04/10 07:26:14;;;;;;;38.90;35.50;;;;;;;2.23;82.48;97701.02;107671;1291;22425;-83
2022/04/10 07:28:43;;;;;;;36.30;33.20;;;;;;;2.27;82.48;97702.92;107660;1291;22441;-83
2022/04/10 07:31:11;;;;;;;32.60;29.70;;;;;;;2.34;82.50;97706.72;107680;1291;22377;-84
2022/04/10 07:33:40;;;;;;;35.30;32.20;;;;;;;2.42;82.47;97707.55;107638;1291;22967;-85
2022/04/10 07:36:28;;;;;;;33.60;30.60;;;;;;;2.50;82.35;97709.65;107671;1291;22283;-85
2022/04/10 07:38:57;;;;;;;40.60;36.90;;;;;;;2.50;82.32;97708.70;107534;1293;22381;-84
2022/04/10 07:41:31;;;;;;;41.40;37.60;;;;;;;2.52;82.35;97707.59;107444;1291;22587;-83
2022/04/10 07:43:59;;;;;;;39.40;36.10;;;;;;;2.57;82.28;97708.71;107664;1290;22419;-85
2022/04/10 07:49:15;;;;;;;33.90;30.90;;;;;;;2.77;82.06;97710.86;107667;1291;22292;-85
2022/04/10 07:51:52;;;;;;;34.80;31.60;;;;;;;2.83;81.78;97710.70;107697;1291;22941;-84
2022/04/10 07:54:24;;;;;;;33.10;30.00;;;;;;;2.77;81.70;97713.24;107673;1291;23176;-87
2022/04/10 07:56:53;;;;;;;31.60;28.80;;;;;;;2.77;81.83;97713.62;107665;1289;22266;-85
2022/04/10 07:59:25;;;;;;;32.70;29.60;;;;;;;2.79;81.96;97712.95;107657;1291;22420;-86
2022/04/10 08:01:54;;;;;;;29.90;26.90;;;;;;;2.90;82.06;97712.93;107684;1291;22289;-85
2022/04/10 08:04:26;;;;;;;29.10;26.50;;;;;;;3.05;81.91;97714.08;107697;1291;22803;-82
2022/04/10 08:07:11;;;;;;;27.80;25.00;;;;;;;3.14;81.66;97716.86;107697;1291;22300;-84
2022/04/10 08:09:40;;;;;;;26.40;24.00;;;;;;;3.13;81.39;97720.52;107702;1291;22444;-83
2022/04/10 08:12:08;;;;;;;32.30;29.40;;;;;;;3.12;81.40;97727.60;107823;1290;22300;-83
2022/04/10 08:14:36;;;;;;;29.40;26.50;;;;;;;3.12;81.42;97726.70;107823;1291;23095;-82
2022/04/10 08:17:04;;;;;;;27.90;25.20;;;;;;;3.21;81.52;97726.39;107826;1291;22329;-83
2022/04/10 08:19:33;;;;;;;28.50;25.70;;;;;;;3.32;81.67;97728.91;107807;1291;22343;-82
2022/04/10 08:22:01;;;;;;;22.90;20.70;;;;;;;3.42;80.91;97725.95;107800;1291;23072;-82
2022/04/10 08:24:29;;;;;;;21.40;18.60;;;;;;;3.43;80.39;97730.58;107809;1291;22460;-83
2022/04/10 08:26:59;;;;;;;20.00;17.90;;;;;;;3.39;80.60;97733.71;107812;1290;22298;-82
2022/04/10 08:29:27;;;;;;;20.40;18.30;;;;;;;3.42;80.88;97736.50;107487;1294;22356;-82
2022/04/10 08:31:55;;;;;;;18.80;14.80;;;;;;;3.47;80.15;97735.52;107812;1291;22387;-82
2022/04/10 08:34:23;;;;;;;18.90;15.70;;;;;;;3.48;80.15;97736.22;107786;1291;22286;-82
2022/04/10 08:36:51;;;;;;;19.20;15.20;;;;;;;3.51;80.16;97744.23;107824;1291;22290;-81
2022/04/10 08:39:19;;;;;;;19.30;16.40;;;;;;;3.57;79.67;97743.98;107819;1291;22294;-82
2022/04/10 08:41:49;;;;;;;20.10;17.00;;;;;;;3.60;79.02;97746.47;107827;1291;23073;-83
2022/04/10 08:44:18;;;;;;;21.80;17.30;;;;;;;3.64;79.16;97745.11;107806;1291;22934;-82
2022/04/10 08:46:48;;;;;;;22.60;19.10;;;;;;;3.72;79.58;97748.94;107773;1291;22868;-83
2022/04/10 08:49:17;;;;;;;19.60;16.10;;;;;;;3.82;79.52;97754.33;107814;1290;22327;-82
2022/04/10 08:51:46;;;;;;;18.00;13.70;;;;;;;3.93;79.36;97747.61;107816;1290;22404;-82
2022/04/10 08:54:14;;;;;;;19.40;13.70;;;;;;;4.04;78.91;97747.02;107820;1290;22172;-82
2022/04/10 08:56:41;;;;;;;16.90;15.10;;;;;;;4.06;78.02;97747.67;107820;1289;22272;-81
2022/04/10 08:59:09;;;;;;;20.90;15.00;;;;;;;4.10;77.88;97749.72;107794;1290;22321;-82
2022/04/10 09:01:37;;;;;;;21.10;17.20;;;;;;;4.14;78.37;97745.52;107806;1290;23093;-83
2022/04/10 09:04:05;;;;;;;25.90;18.40;;;;;;;4.23;78.77;97746.09;107785;1291;22539;-83
2022/04/10 09:06:40;;;;;;;19.40;17.40;;;;;;;4.37;78.71;97737.23;107793;1291;22251;-82
2022/04/10 09:09:17;;;;;;;20.90;15.60;;;;;;;4.53;78.95;97733.33;107798;1290;22430;-83
2022/04/10 09:11:53;;;;;;;20.00;15.80;;;;;;;4.77;78.70;97736.25;107779;1290;22365;-81
2022/04/10 09:14:22;;;;;;;17.90;14.70;;;;;;;4.92;77.88;97734.41;107778;1291;22378;-83
2022/04/10 09:17:15;;;;;;;15.00;10.70;;;;;;;5.02;78.13;97738.42;107797;1290;22373;-81
2022/04/10 09:19:48;;;;;;;16.70;9.00;;;;;;;4.97;75.61;97748.08;107804;1291;22467;-86
2022/04/10 09:22:28;;;;;;;12.70;8.10;;;;;;;4.80;74.83;97751.10;107665;1292;22421;-85
2022/04/10 09:25:13;;;;;;;12.90;8.40;;;;;;;4.69;75.05;97757.38;107800;1290;22371;-85
2022/04/10 09:27:45;;;;;;;;;;;;;;;4.51;73.35;97762.55;107818;1291;23050;-87
2022/04/10 09:30:15;;;;;;;11.20;8.70;;;;;;;4.24;72.36;97765.56;107667;1291;22280;-89
2022/04/10 09:32:50;;;;;;;13.10;9.70;;;;;;;4.02;73.86;97772.30;107798;1290;22403;-90
2022/04/10 09:35:20;;;;;;;14.40;11.60;;;;;;;3.79;74.09;97774.02;107786;1290;22537;-89
2022/04/10 09:37:56;;;;;;;16.20;10.80;;;;;;;3.57;74.74;97768.19;107860;1290;23064;-85
2022/04/10 09:40:31;;;;;;;16.70;14.50;;;;;;;3.39;75.34;97767.74;107833;1291;22437;-90
2022/04/10 09:43:10;;;;;;;20.60;15.30;;;;;;;3.36;76.14;97763.73;107799;1290;23026;-90
2022/04/10 09:45:46;;;;;;;18.90;16.20;;;;;;;3.43;76.85;97758.14;107815;1290;22639;-90
2022/04/10 09:48:22;;;;;;;19.20;15.90;;;;;;;3.57;77.36;97757.95;107654;1293;22251;-84
2022/04/10 09:50:54;;;;;;;22.30;16.30;;;;;;;3.76;77.59;97756.20;107827;1291;22241;-89
2022/04/10 09:53:23;;;;;;;17.70;13.90;;;;;;;4.00;77.72;97752.34;107806;1290;22273;-90
2022/04/10 09:55:53;;;;;;;21.10;15.30;;;;;;;4.30;77.75;97751.83;107830;1290;23120;-85
2022/04/10 09:58:23;;;;;;;20.10;13.80;;;;;;;4.65;77.65;97751.18;107818;1291;22369;-89
2022/04/10 10:00:55;;;;;;;20.10;13.10;;;;;;;4.96;77.44;97741.50;107827;1291;22282;-87
2022/04/10 10:03:30;;;;;;;15.60;10.80;;;;;;;5.16;75.74;97745.26;107562;1291;22383;-87
2022/04/10 10:05:58;;;;;;;16.30;11.90;;;;;;;5.23;75.78;97745.52;107430;1293;22407;-87
2022/04/10 10:08:28;;;;;;;14.60;9.80;;;;;;;5.27;74.78;97753.70;107797;1291;22373;-89
2022/04/10 10:10:56;;;;;;;13.20;8.40;;;;;;;5.24;73.17;97754.60;107829;1291;23280;-89
2022/04/10 10:13:27;;;;;;;13.50;9.00;;;;;;;5.18;72.70;97753.96;107813;1290;23108;-88
2022/04/10 10:15:55;;;;;;;15.20;11.40;;;;;;;5.15;72.24;97753.42;107809;1291;22635;-89
2022/04/10 10:18:26;;;;;;;13.20;9.40;;;;;;;5.11;70.94;97758.98;107798;1290;22371;-90
2022/04/10 10:20:54;;;;;;;14.70;10.30;;;;;;;5.03;69.32;97754.65;107631;1291;22298;-88
2022/04/10 10:23:23;;;;;;;15.00;9.40;;;;;;;4.99;70.61;97744.61;107844;1291;22371;-85
2022/04/10 10:25:53;;;;;;;14.60;10.50;;;;;;;4.99;71.00;97752.73;107642;1292;22316;-89
2022/04/10 10:29:00;;;;;;;14.00;9.10;;;;;;;5.01;70.30;97755.29;107822;1291;23024;-88
2022/04/10 10:31:47;;;;;;;11.60;8.70;;;;;;;5.03;69.66;97754.12;107805;1290;22297;-87
2022/04/10 10:34:16;;;;;;;11.20;7.10;;;;;;;4.97;65.82;97767.79;107778;1290;22426;-90
2022/04/10 10:36:44;;;;;;;11.20;7.80;;;;;;;4.89;66.07;97767.25;107824;1291;23157;-93
2022/04/10 10:39:12;;;;;;;11.80;8.30;;;;;;;4.85;67.53;97767.88;107809;1290;22705;-88
2022/04/10 10:41:40;;;;;;;11.80;8.90;;;;;;;4.85;66.18;97767.02;107847;1291;22528;-93
2022/04/10 10:44:16;;;;;;;11.10;8.50;;;;;;;4.83;66.23;97779.08;107819;1290;22373;-91
2022/04/10 10:47:02;;;;;;;12.70;8.60;;;;;;;4.75;67.29;97784.08;107576;1291;22515;-79
2022/04/10 10:49:42;;;;;;;12.00;8.90;;;;;;;4.59;67.39;97792.16;107637;1292;22337;-85
2022/04/10 10:52:11;;;;;;;14.50;10.20;;;;;;;4.42;68.49;97786.45;107845;1291;22259;-87
2022/04/10 10:54:53;;;;;;;15.70;11.20;;;;;;;4.29;68.75;97781.42;107819;1290;22929;-82
2022/04/10 10:57:25;;;;;;;14.90;10.70;;;;;;;4.33;70.35;97776.59;107550;1291;22256;-83
2022/04/10 11:00:04;;;;;;;14.90;12.30;;;;;;;4.41;69.70;97781.95;107802;1290;22334;-83
2022/04/10 11:02:35;;;;;;;20.10;16.70;;;;;;;4.44;69.55;97781.21;107840;1290;22359;-84
2022/04/10 11:05:24;;;;;;;21.80;16.30;;;;;;;4.50;70.08;97772.65;107828;1291;22383;-84
2022/04/10 11:08:14;;;;;;;15.00;11.40;;;;;;;4.62;70.00;97773.16;107800;1289;22357;-82
2022/04/10 11:11:02;;;;;;;25.90;18.50;;;;;;;4.73;69.49;97767.84;107799;1290;22275;-82
2022/04/10 11:13:42;;;;;;;17.80;12.10;;;;;;;4.92;69.77;97760.95;107800;1291;22462;-82
2022/04/10 11:16:12;;;;;;;12.30;9.20;;;;;;;5.23;69.62;97762.03;107603;1290;22437;-85
2022/04/10 11:18:50;;;;;;;12.30;8.60;;;;;;;5.49;68.42;97762.08;107797;1289;22365;-82
2022/04/10 11:21:19;;;;;;;14.90;10.20;;;;;;;5.59;67.03;97764.41;107624;1292;22286;-82
2022/04/10 11:23:57;;;;;;;11.60;8.70;;;;;;;5.60;66.46;97762.60;107801;1290;22273;-80
2022/04/10 11:26:35;;;;;;;21.70;13.10;;;;;;;5.55;65.90;97765.38;107828;1290;23242;-84
2022/04/10 11:29:07;;;;;;;14.00;9.60;;;;;;;5.52;66.75;97759.30;107825;1291;22334;-82
2022/04/10 11:31:38;;;;;;;13.50;9.30;;;;;;;5.53;64.73;97766.45;107652;1291;22257;-82
2022/04/10 11:34:11;;;;;;;11.40;8.80;;;;;;;5.51;63.83;97773.51;107829;1290;22952;-84